Time;durP1;ratioP1;P1;durP2;ratioP2;P2;SDS_P1;SDS_P2;PMS_P1;PMS_P2;Temp;Humidity;BMP_temperature;BMP_pressure;BME280_temperature;BME280_humidity;BME280_pressure;Samples;Min_cycle;Max_cycle;Signal;HPM_P1;HPM_P2
2022/10/02 00:00:43;;;;;;;;;;;;;;;12.21;100.00;101207.94;5072074;28;19924;-59
2022/10/02 00:03:16;;;;;;;;;;;;;;;12.25;100.00;101212.03;5070809;28;19951;-58
2022/10/02 00:05:46;;;;;;;;;;;;;;;12.23;100.00;101222.69;5076665;28;19920;-59
2022/10/02 00:08:16;;;;;;;;;;;;;;;12.22;100.00;101233.34;5075305;28;19920;-58
2022/10/02 00:10:53;;;;;;;;;;;;;;;12.22;100.00;101238.63;5075266;28;19927;-59
2022/10/02 00:13:24;;;;;;;;;;;;;;;12.24;100.00;101242.00;5074566;28;19928;-58
2022/10/02 00:15:54;;;;;;;;;;;;;;;12.19;100.00;101239.66;5075902;28;19939;-58
2022/10/02 00:18:24;;;;;;;;;;;;;;;12.24;100.00;101234.91;5076106;28;20409;-57
2022/10/02 00:20:58;;;;;;;;;;;;;;;12.22;100.00;101215.72;5075891;28;20316;-57
2022/10/02 00:23:28;;;;;;;;;;;;;;;12.24;100.00;101210.34;5075833;28;19920;-48
2022/10/02 00:26:00;;;;;;;;;;;;;;;12.24;100.00;101213.81;5076351;28;20354;-52
2022/10/02 00:28:31;;;;;;;;;;;;;;;12.28;100.00;101206.56;5075825;28;20417;-51
2022/10/02 00:31:11;;;;;;;;;;;;;;;12.17;100.00;101197.59;5075914;28;20264;-51
2022/10/02 00:33:43;;;;;;;;;;;;;;;12.21;100.00;101206.13;5074978;28;19974;-50
2022/10/02 00:36:18;;;;;;;;;;;;;;;12.17;100.00;101209.91;5073148;28;19921;-53
2022/10/02 00:38:50;;;;;;;;;;;;;;;12.16;100.00;101216.13;5074840;28;19920;-52
2022/10/02 00:41:52;;;;;;;;;;;;;;;12.15;100.00;101219.72;5075700;28;19960;-53
2022/10/02 00:44:33;;;;;;;;;;;;;;;12.12;100.00;101227.81;5075870;28;20018;-54
2022/10/02 00:47:04;;;;;;;;;;;;;;;12.05;100.00;101232.63;5071848;28;19935;-54
2022/10/02 00:49:49;;;;;;;;;;;;;;;12.03;100.00;101228.44;5073646;28;19970;-53
2022/10/02 00:52:27;;;;;;;;;;;;;;;12.00;100.00;101226.84;5075234;28;19924;-51
2022/10/02 00:55:03;;;;;;;;;;;;;;;11.96;100.00;101218.28;5075550;28;19970;-51
2022/10/02 00:57:40;;;;;;;;;;;;;;;11.91;100.00;101235.31;5075464;28;19920;-50
2022/10/02 01:00:09;;;;;;;;;;;;;;;11.92;100.00;101232.56;5075338;28;19974;-51
2022/10/02 01:02:47;;;;;;;;;;;;;;;11.83;100.00;101230.53;5075129;28;19920;-59
2022/10/02 01:05:15;;;;;;;;;;;;;;;11.81;100.00;101233.25;5074865;28;19928;-59
2022/10/02 01:07:45;;;;;;;;;;;;;;;11.81;100.00;101250.88;5073222;28;19920;-60
2022/10/02 01:10:13;;;;;;;;;;;;;;;11.76;100.00;101245.03;5074093;28;19966;-59
2022/10/02 01:12:43;;;;;;;;;;;;;;;11.79;100.00;101248.34;5074169;28;19931;-58
2022/10/02 01:15:12;;;;;;;;;;;;;;;11.72;100.00;101248.81;5072911;28;19974;-52
2022/10/02 01:17:40;;;;;;;;;;;;;;;11.73;100.00;101247.88;5072031;28;19974;-52
2022/10/02 01:20:12;;;;;;;;;;;;;;;11.73;100.00;101245.25;5073504;28;19946;-54
2022/10/02 01:22:44;;;;;;;;;;;;;;;11.73;100.00;101245.25;5074851;28;20019;-54
2022/10/02 01:25:14;;;;;;;;;;;;;;;11.72;100.00;101246.19;5074978;28;19920;-54
2022/10/02 01:27:42;;;;;;;;;;;;;;;11.65;100.00;101238.66;5075056;28;19931;-53
2022/10/02 01:30:11;;;;;;;;;;;;;;;11.64;100.00;101234.34;5074783;28;19973;-55
2022/10/02 01:32:41;;;;;;;;;;;;;;;11.64;100.00;101231.72;5074724;28;19920;-51
2022/10/02 01:35:09;;;;;;;;;;;;;;;11.57;100.00;101227.75;5072986;28;19971;-51
2022/10/02 01:37:41;;;;;;;;;;;;;;;11.56;100.00;101230.50;5072747;28;20374;-51
2022/10/02 01:40:22;;;;;;;;;;;;;;;11.53;100.00;101239.44;5072367;28;19924;-54
2022/10/02 01:42:51;;;;;;;;;;;;;;;11.53;100.00;101239.44;5072194;28;19932;-52
2022/10/02 01:45:22;;;;;;;;;;;;;;;11.55;100.00;101245.47;5072383;28;20011;-51
2022/10/02 01:47:51;;;;;;;;;;;;;;;11.46;100.00;101246.88;5071504;28;20731;-51
2022/10/02 01:50:27;;;;;;;;;;;;;;;11.49;100.00;101244.06;5073689;28;19920;-53
2022/10/02 01:53:01;;;;;;;;;;;;;;;11.44;100.00;101263.75;5074405;28;19993;-53
2022/10/02 01:55:35;;;;;;;;;;;;;;;11.44;100.00;101283.00;5073933;28;19966;-51
2022/10/02 01:58:15;;;;;;;;;;;;;;;11.48;100.00;101281.03;5073695;28;19920;-52
2022/10/02 02:00:49;;;;;;;;;;;;;;;11.53;100.00;101283.38;5073957;28;19920;-50
2022/10/02 02:03:21;;;;;;;;;;;;;;;11.54;100.00;101290.34;5074208;28;19928;-51
2022/10/02 02:05:52;;;;;;;;;;;;;;;11.62;100.00;101280.19;5074109;28;19924;-51
2022/10/02 02:08:24;;;;;;;;;;;;;;;11.72;100.00;101278.63;5073889;28;19921;-53
2022/10/02 02:10:58;;;;;;;;;;;;;;;11.73;100.00;101280.34;5072013;28;20026;-53
2022/10/02 02:13:30;;;;;;;;;;;;;;;11.79;100.00;101271.19;5071076;28;19924;-53
2022/10/02 02:16:02;;;;;;;;;;;;;;;11.83;100.00;101277.97;5071160;28;19924;-52
2022/10/02 02:18:34;;;;;;;;;;;;;;;11.83;100.00;101267.41;5070645;28;20407;-53
2022/10/02 02:21:04;;;;;;;;;;;;;;;11.91;100.00;101266.94;5072259;28;20284;-52
2022/10/02 02:23:34;;;;;;;;;;;;;;;11.99;100.00;101259.41;5070635;28;20315;-52
2022/10/02 02:26:04;;;;;;;;;;;;;;;11.96;100.00;101267.53;5073213;28;20008;-50
2022/10/02 02:28:34;;;;;;;;;;;;;;;11.96;100.00;101268.38;5071235;28;19920;-51
2022/10/02 02:31:03;;;;;;;;;;;;;;;11.97;100.00;101277.09;5070980;28;19955;-53
2022/10/02 02:33:36;;;;;;;;;;;;;;;12.00;100.00;101274.28;5070492;28;19920;-52
2022/10/02 02:36:07;;;;;;;;;;;;;;;12.00;100.00;101267.22;5070161;28;19920;-54
2022/10/02 02:38:37;;;;;;;;;;;;;;;12.00;100.00;101264.59;5073362;28;19921;-52
2022/10/02 02:41:09;;;;;;;;;;;;;;;11.98;100.00;101258.59;5071678;28;19921;-53
2022/10/02 02:43:42;;;;;;;;;;;;;;;11.97;100.00;101261.28;5070969;28;19921;-53
2022/10/02 02:46:14;;;;;;;;;;;;;;;11.97;100.00;101259.53;5068830;28;20527;-52
2022/10/02 02:48:44;;;;;;;;;;;;;;;11.95;100.00;101258.75;5070714;28;19982;-52
2022/10/02 02:51:15;;;;;;;;;;;;;;;11.97;100.00;101258.66;5071183;28;19924;-54
2022/10/02 02:53:47;;;;;;;;;;;;;;;11.96;100.00;101267.53;5073170;28;20352;-53
2022/10/02 02:56:17;;;;;;;;;;;;;;;11.94;100.00;101270.25;5073260;28;19920;-53
2022/10/02 02:58:54;;;;;;;;;;;;;;;11.94;100.00;101267.63;5073279;28;19920;-53
2022/10/02 03:01:22;;;;;;;;;;;;;;;12.03;100.00;101268.81;5072597;28;19935;-51
2022/10/02 03:03:50;;;;;;;;;;;;;;;12.02;100.00;101266.28;5070209;28;19959;-50
2022/10/02 03:06:27;;;;;;;;;;;;;;;12.00;100.00;101269.03;5071638;28;19921;-53
2022/10/02 03:08:56;;;;;;;;;;;;;;;11.96;100.00;101276.28;5072018;28;19920;-52
2022/10/02 03:11:31;;;;;;;;;;;;;;;11.95;100.00;101269.31;5071918;28;20562;-58
2022/10/02 03:14:08;;;;;;;;;;;;;;;11.92;100.00;101266.84;5072428;28;19924;-58
2022/10/02 03:16:41;;;;;;;;;;;;;;;11.89;100.00;101260.91;5073588;28;19921;-58
2022/10/02 03:19:18;;;;;;;;;;;;;;;11.84;100.00;101263.84;5073305;28;19947;-58
2022/10/02 03:21:52;;;;;;;;;;;;;;;11.79;100.00;101258.88;5073270;28;19920;-59
2022/10/02 03:24:23;;;;;;;;;;;;;;;11.79;100.00;101265.91;5073448;28;20438;-58
2022/10/02 03:26:55;;;;;;;;;;;;;;;11.74;100.00;101266.22;5073469;28;19924;-58
2022/10/02 03:29:26;;;;;;;;;;;;;;;11.71;100.00;101261.16;5073366;28;19920;-59
2022/10/02 03:31:54;;;;;;;;;;;;;;;11.71;100.00;101265.56;5073389;28;20480;-59
2022/10/02 03:34:23;;;;;;;;;;;;;;;11.74;100.00;101276.75;5073445;28;19920;-59
2022/10/02 03:36:51;;;;;;;;;;;;;;;11.67;100.00;101276.31;5073193;28;20367;-58
2022/10/02 03:39:19;;;;;;;;;;;;;;;11.69;100.00;101270.09;5074251;28;19952;-59
2022/10/02 03:41:52;;;;;;;;;;;;;;;11.71;100.00;101273.47;5075986;28;19974;-59
2022/10/02 03:44:20;;;;;;;;;;;;;;;11.70;100.00;101277.91;5076519;28;19927;-59
2022/10/02 03:46:52;;;;;;;;;;;;;;;11.68;100.00;101279.78;5076822;28;19921;-58
2022/10/02 03:49:20;;;;;;;;;;;;;;;11.59;100.00;101278.56;5074326;28;19920;-59
2022/10/02 03:51:48;;;;;;;;;;;;;;;11.62;100.00;101275.75;5075646;28;19924;-59
2022/10/02 03:54:17;;;;;;;;;;;;;;;11.61;100.00;101274.03;5076366;28;20448;-60
2022/10/02 03:56:50;;;;;;;;;;;;;;;11.62;100.00;101272.28;5076011;28;19921;-60
2022/10/02 03:59:24;;;;;;;;;;;;;;;11.65;100.00;101267.63;5075619;28;19973;-60
2022/10/02 04:01:55;;;;;;;;;;;;;;;11.61;100.00;101271.41;5075697;28;19920;-60
2022/10/02 04:04:24;;;;;;;;;;;;;;;11.60;100.00;101269.75;5076653;28;19920;-60
2022/10/02 04:06:55;;;;;;;;;;;;;;;11.59;100.00;101273.31;5076626;28;19928;-60
2022/10/02 04:09:27;;;;;;;;;;;;;;;11.57;100.00;101274.34;5076831;28;19966;-60
2022/10/02 04:11:58;;;;;;;;;;;;;;;11.56;100.00;101273.50;5076789;28;19921;-60
2022/10/02 04:14:30;;;;;;;;;;;;;;;11.53;100.00;101275.47;5076805;28;19921;-60
2022/10/02 04:17:02;;;;;;;;;;;;;;;11.51;100.00;101275.56;5076331;28;19943;-60
2022/10/02 04:19:35;;;;;;;;;;;;;;;11.50;100.00;101281.78;5075775;28;19920;-60
2022/10/02 04:22:08;;;;;;;;;;;;;;;11.46;100.00;101290.81;5075380;28;19952;-60
2022/10/02 04:24:41;;;;;;;;;;;;;;;11.51;100.00;101291.38;5076310;28;19920;-60
2022/10/02 04:27:13;;;;;;;;;;;;;;;11.52;100.00;101293.06;5075919;28;20387;-59
2022/10/02 04:29:44;;;;;;;;;;;;;;;11.52;100.00;101290.44;5075515;28;19962;-60
2022/10/02 04:32:14;;;;;;;;;;;;;;;11.48;100.00;101294.22;5074566;28;19921;-53
2022/10/02 04:34:43;;;;;;;;;;;;;;;11.46;100.00;101288.19;5074166;28;19966;-54
2022/10/02 04:37:23;;;;;;;;;;;;;;;11.45;100.00;101289.97;5073403;28;19924;-55
2022/10/02 04:39:55;;;;;;;;;;;;;;;11.48;100.00;101294.22;5073820;28;19920;-51
2022/10/02 04:42:30;;;;;;;;;;;;;;;11.45;100.00;101286.47;5073123;28;19929;-53
2022/10/02 04:45:10;;;;;;;;;;;;;;;11.45;100.00;101294.38;5074108;28;20359;-54
2022/10/02 04:47:48;;;;;;;;;;;;;;;11.43;100.00;101299.75;5072315;28;20418;-53
2022/10/02 04:50:27;;;;;;;;;;;;;;;11.44;100.00;101308.50;5074199;28;20425;-53
2022/10/02 04:53:02;;;;;;;;;;;;;;;11.41;100.00;101306.91;5075731;28;19920;-52
2022/10/02 04:55:41;;;;;;;;;;;;;;;11.40;100.00;101304.34;5075570;28;20333;-54
2022/10/02 04:58:27;;;;;;;;;;;;;;;11.35;100.00;101306.44;5072857;28;19928;-54
2022/10/02 05:00:59;;;;;;;;;;;;;;;11.32;100.00;101324.09;5073486;28;19928;-53
2022/10/02 05:03:36;;;;;;;;;;;;;;;11.29;100.00;101318.19;5072545;28;21030;-55
2022/10/02 05:06:11;;;;;;;;;;;;;;;11.25;100.00;101322.78;5073769;28;19920;-52
2022/10/02 05:08:50;;;;;;;;;;;;;;;11.22;100.00;101328.25;5074998;28;19928;-52
2022/10/02 05:11:30;;;;;;;;;;;;;;;11.16;100.00;101316.28;5072574;28;19924;-50
2022/10/02 05:14:09;;;;;;;;;;;;;;;11.19;100.00;101317.03;5072763;28;19982;-54
2022/10/02 05:16:47;;;;;;;;;;;;;;;11.14;100.00;101320.78;5074563;28;20290;-54
2022/10/02 05:19:24;;;;;;;;;;;;;;;11.14;100.00;101319.97;5075036;28;19965;-53
2022/10/02 05:22:02;;;;;;;;;;;;;;;11.13;100.00;101323.53;5074335;28;19986;-54
2022/10/02 05:24:40;;;;;;;;;;;;;;;11.09;100.00;101319.38;5072599;28;19920;-53
2022/10/02 05:27:15;;;;;;;;;;;;;;;11.05;100.00;101323.97;5071991;28;19966;-53
2022/10/02 05:29:53;;;;;;;;;;;;;;;11.10;100.00;101321.91;5072846;28;19946;-52
2022/10/02 05:32:28;;;;;;;;;;;;;;;11.05;100.00;101328.41;5070864;28;19965;-53
2022/10/02 05:35:06;;;;;;;;;;;;;;;11.04;100.00;101329.31;5072729;28;19924;-54
2022/10/02 05:37:39;;;;;;;;;;;;;;;11.01;100.00;101340.88;5072596;28;20394;-54
2022/10/02 05:40:13;;;;;;;;;;;;;;;10.98;100.00;101349.81;5072792;28;19920;-54
2022/10/02 05:42:46;;;;;;;;;;;;;;;11.01;100.00;101363.72;5074199;28;19921;-55
2022/10/02 05:45:19;;;;;;;;;;;;;;;10.95;100.00;101372.84;5072672;28;19920;-54
2022/10/02 05:47:49;;;;;;;;;;;;;;;10.91;100.00;101372.16;5071409;28;19955;-54
2022/10/02 05:50:20;;;;;;;;;;;;;;;10.90;100.00;101367.00;5072510;28;19920;-53
2022/10/02 05:52:53;;;;;;;;;;;;;;;10.87;100.00;101375.91;5073780;28;19971;-54
2022/10/02 05:55:25;;;;;;;;;;;;;;;10.83;100.00;101377.84;5072087;28;20302;-53
2022/10/02 05:57:57;;;;;;;;;;;;;;;10.78;100.00;101381.69;5072129;28;20386;-53
2022/10/02 06:00:30;;;;;;;;;;;;;;;10.80;100.00;101378.03;5072168;28;19924;-54
2022/10/02 06:03:03;;;;;;;;;;;;;;;10.78;100.00;101371.16;5070289;28;19935;-55
2022/10/02 06:05:39;;;;;;;;;;;;;;;10.78;100.00;101360.66;5072805;28;19920;-59
2022/10/02 06:08:09;;;;;;;;;;;;;;;10.83;100.00;101366.50;5074283;28;19921;-59
2022/10/02 06:10:41;;;;;;;;;;;;;;;10.83;100.00;101374.38;5073699;28;19974;-59
2022/10/02 06:13:12;;;;;;;;;;;;;;;10.85;100.00;101366.41;5072816;28;19924;-59
2022/10/02 06:15:43;;;;;;;;;;;;;;;10.86;100.00;101371.56;5073568;28;19927;-66
2022/10/02 06:18:14;;;;;;;;;;;;;;;10.91;100.00;101381.84;5071116;28;19931;-60
2022/10/02 06:20:46;;;;;;;;;;;;;;;10.97;100.00;101387.56;5072516;28;19926;-57
2022/10/02 06:23:19;;;;;;;;;;;;;;;11.07;100.00;101381.78;5074237;28;19947;-51
2022/10/02 06:25:49;;;;;;;;;;;;;;;11.14;100.00;101378.72;5073922;28;19920;-54
2022/10/02 06:28:19;;;;;;;;;;;;;;;11.21;100.00;101389.72;5072639;28;19921;-52
2022/10/02 06:30:49;;;;;;;;;;;;;;;11.27;100.00;101394.63;5072385;28;19955;-58
2022/10/02 06:33:20;;;;;;;;;;;;;;;11.38;100.00;101382.59;5070014;28;19920;-52
2022/10/02 06:36:16;;;;;;;;;;;;;;;11.45;100.00;101376.03;5070476;28;19967;-51
2022/10/02 06:38:55;;;;;;;;;;;;;;;11.51;100.00;101388.84;5047901;28;19943;-58
2022/10/02 06:41:27;;;;;;;;;;;;;;;11.55;100.00;101406.16;5070561;28;19920;-59
2022/10/02 06:44:04;;;;;;;;;;;;;;;11.59;100.00;101407.66;5070603;28;19927;-53
2022/10/02 06:46:36;;;;;;;;;;;;;;;11.64;100.00;101400.31;5070216;28;19920;-54
2022/10/02 06:49:08;;;;;;;;;;;;;;;11.76;100.00;101403.97;5072689;28;20283;-51
2022/10/02 06:51:43;;;;;;;;;;;;;;;11.79;100.00;101409.09;5072056;28;19924;-54
2022/10/02 06:54:24;;;;;;;;;;;;;;;11.84;100.00;101414.06;5072725;28;19925;-59
2022/10/02 06:57:08;;;;;;;;;;;;;;;11.94;100.00;101404.69;5073280;28;20296;-59
2022/10/02 06:59:44;;;;;;;;;;;;;;;11.99;100.00;101407.88;5073330;28;20409;-59
2022/10/02 07:02:19;;;;;;;;;;;;;;;12.03;100.00;101419.06;5072199;28;19924;-62
2022/10/02 07:04:58;;;;;;;;;;;;;;;12.08;100.00;101421.41;5073120;28;19920;-52
2022/10/02 07:07:36;;;;;;;;;;;;;;;12.17;100.00;101415.56;5073059;28;19924;-54
2022/10/02 07:10:14;;;;;;;;;;;;;;;12.24;100.00;101426.59;5073281;28;19966;-53
2022/10/02 07:13:01;;;;;;;;;;;;;;;12.32;100.00;101426.94;5072967;28;19924;-53
2022/10/02 07:15:41;;;;;;;;;;;;;;;12.39;100.00;101432.69;5066961;28;19924;-53
2022/10/02 07:18:18;;;;;;;;;;;;;;;12.46;100.00;101431.34;5072947;28;19947;-53
2022/10/02 07:20:52;;;;;;;;;;;;;;;12.51;100.00;101432.72;5072641;28;20027;-52
2022/10/02 07:23:27;;;;;;;;;;;;;;;12.58;100.00;101438.47;5071368;28;19924;-54
2022/10/02 07:26:07;;;;;;;;;;;;;;;12.65;100.00;101449.47;5072252;28;19963;-52
2022/10/02 07:28:39;;;;;;;;;;;;;;;12.75;100.00;101449.72;5072863;28;19998;-52
2022/10/02 07:31:10;;;;;;;;;;;;;;;12.94;100.00;101447.59;5072586;28;19920;-53
2022/10/02 07:33:45;;;;;;;;;;;;;;;13.07;100.00;101438.88;5072970;28;20330;-55
2022/10/02 07:36:17;;;;;;;;;;;;;;;13.15;100.00;101444.47;5072955;28;19952;-55
2022/10/02 07:38:54;;;;;;;;;;;;;;;13.29;100.00;101447.06;5072654;28;19924;-54
2022/10/02 07:41:44;;;;;;;;;;;;;;;13.41;100.00;101455.13;5071508;28;19950;-53
2022/10/02 07:44:19;;;;;;;;;;;;;;;13.47;100.00;101452.06;5070438;28;19924;-55
2022/10/02 07:46:54;;;;;;;;;;;;;;;13.55;100.00;101462.94;5069690;28;19924;-55
2022/10/02 07:49:29;;;;;;;;;;;;;;;13.60;100.00;101452.91;5072320;28;19928;-54
2022/10/02 07:52:00;;;;;;;;;;;;;;;13.66;100.00;101459.59;5070597;28;20355;-55
2022/10/02 07:54:43;;;;;;;;;;;;;;;13.76;100.00;101467.75;5071768;28;19920;-55
2022/10/02 07:57:22;;;;;;;;;;;;;;;13.77;100.00;101467.63;5072427;28;19920;-54
2022/10/02 07:59:51;;;;;;;;;;;;;;;13.83;100.00;101471.66;5072698;28;20371;-54
2022/10/02 08:02:23;;;;;;;;;;;;;;;13.90;100.00;101478.19;5072736;28;19921;-55
2022/10/02 08:04:57;;;;;;;;;;;;;;;13.99;100.00;101476.75;5071036;28;20031;-54
2022/10/02 08:07:25;;;;;;;;;;;;;;;14.07;100.00;101486.75;5070117;28;20276;-55
2022/10/02 08:09:55;;;;;;;;;;;;;;;14.14;100.00;101483.59;5070564;28;19943;-55
2022/10/02 08:12:27;;;;;;;;;;;;;;;14.23;100.00;101489.19;5069879;28;20023;-56
2022/10/02 08:14:57;;;;;;;;;;;;;;;14.24;100.00;101489.06;5070456;28;19924;-55
2022/10/02 08:17:29;;;;;;;;;;;;;;;14.30;100.00;101487.78;5071278;28;19982;-55
2022/10/02 08:19:59;;;;;;;;;;;;;;;14.41;100.00;101487.03;5070972;28;20023;-54
2022/10/02 08:22:30;;;;;;;;;;;;;;;14.56;100.00;101499.19;5070123;28;19939;-53
2022/10/02 08:25:01;;;;;;;;;;;;;;;14.67;100.00;101491.34;5073671;28;19920;-54
2022/10/02 08:27:34;;;;;;;;;;;;;;;14.87;100.00;101508.44;5076467;28;20267;-56
2022/10/02 08:30:05;;;;;;;;;;;;;;;15.08;100.00;101501.66;5076012;28;19924;-56
2022/10/02 08:32:35;;;;;;;;;;;;;;;15.19;100.00;101505.22;5072920;28;20289;-60
2022/10/02 08:35:10;;;;;;;;;;;;;;;15.17;100.00;101507.13;5073640;28;20330;-56
2022/10/02 08:37:42;;;;;;;;;;;;;;;15.26;100.00;101510.91;5073577;28;19924;-56
2022/10/02 08:40:35;;;;;;;;;;;;;;;15.33;100.00;101512.13;5073042;28;19951;-56
2022/10/02 08:43:21;;;;;;;;;;;;;;;15.41;100.00;101516.84;5075304;28;19927;-55
2022/10/02 08:46:10;;;;;;;;;;;;;;;15.61;100.00;101515.34;5075733;28;19920;-55
2022/10/02 08:48:49;;;;;;;;;;;;;;;15.71;100.00;101515.50;5071358;28;19974;-56
2022/10/02 08:51:44;;;;;;;;;;;;;;;15.68;100.00;101516.56;5072941;28;19924;-52
2022/10/02 08:54:29;;;;;;;;;;;;;;;15.76;100.00;101536.34;5073317;28;19963;-55
2022/10/02 08:57:12;;;;;;;;;;;;;;;15.86;100.00;101535.56;5074662;28;19921;-55
2022/10/02 09:00:00;;;;;;;;;;;;;;;15.94;100.00;101537.63;5075639;28;19920;-61
2022/10/02 09:02:49;;;;;;;;;;;;;;;16.05;100.00;101544.75;5071986;28;19954;-63
2022/10/02 09:05:38;;;;;;;;;;;;;;;16.20;100.00;101548.03;5075225;28;19963;-62
2022/10/02 09:08:25;;;;;;;;;;;;;;;16.19;100.00;101541.03;5075168;28;20366;-62
2022/10/02 09:11:11;;;;;;;;;;;;;;;16.39;100.00;101550.94;5068842;28;19931;-62
2022/10/02 09:13:54;;;;;;;;;;;;;;;16.46;100.00;101543.31;5075048;28;19920;-62
2022/10/02 09:16:28;;;;;;;;;;;;;;;16.59;100.00;101545.84;5065915;28;20007;-62
2022/10/02 09:19:01;;;;;;;;;;;;;;;16.67;100.00;101555.84;5072016;28;19927;-62
2022/10/02 09:21:40;;;;;;;;;;;;;;;16.71;100.00;101546.69;5072070;28;20326;-62
2022/10/02 09:24:25;;;;;;;;;;;;;;;16.77;100.00;101550.66;5073647;28;19924;-62
2022/10/02 09:27:20;;;;;;;;;;;;;;;16.79;100.00;101548.72;5072009;28;19920;-62
2022/10/02 09:30:02;;;;;;;;;;;;;;;16.77;100.00;101551.50;5072546;28;19925;-63
2022/10/02 09:32:56;;;;;;;;;;;;;;;16.94;100.00;101544.84;5071637;28;19921;-62
2022/10/02 09:35:51;;;;;;;;;;;;;;;17.16;100.00;101548.41;5072203;28;19931;-63
2022/10/02 09:38:44;;;;;;;;;;;;;;;17.35;100.00;101558.38;5073291;28;19924;-56
2022/10/02 09:41:33;;;;;;;;;;;;;;;17.42;100.00;101551.56;5072055;28;19921;-56
2022/10/02 09:44:17;;;;;;;;;;;;;;;17.47;100.00;101559.19;5072642;28;19924;-56
2022/10/02 09:47:02;;;;;;;;;;;;;;;17.55;100.00;101562.88;5071386;28;20735;-57
2022/10/02 09:49:59;;;;;;;;;;;;;;;17.72;100.00;101572.13;5071857;28;20291;-57
2022/10/02 09:52:45;;;;;;;;;;;;;;;17.56;100.00;101569.03;5071459;28;19920;-57
2022/10/02 09:55:28;;;;;;;;;;;;;;;17.46;100.00;101570.78;5070946;28;19920;-56
2022/10/02 09:58:13;;;;;;;;;;;;;;;17.68;100.00;101578.66;5072147;28;19920;-56
2022/10/02 10:00:59;;;;;;;;;;;;;;;17.80;100.00;101566.13;5053131;28;19924;-55
2022/10/02 10:03:47;;;;;;;;;;;;;;;17.96;100.00;101562.22;5071141;28;19936;-56
2022/10/02 10:06:33;;;;;;;;;;;;;;;17.97;100.00;101567.41;5071768;28;19966;-56
2022/10/02 10:09:16;;;;;;;;;;;;;;;18.17;100.00;101572.84;5072468;28;19921;-56
2022/10/02 10:11:56;;;;;;;;;;;;;;;18.45;100.00;101573.94;5048977;28;20427;-56
2022/10/02 10:14:50;;;;;;;;;;;;;;;18.36;100.00;101570.25;5071321;28;19931;-56
2022/10/02 10:17:42;;;;;;;;;;;;;;;18.49;100.00;101571.88;5070639;28;20423;-55
2022/10/02 10:20:33;;;;;;;;;;;;;;;18.39;100.00;101585.13;5073743;28;19966;-56
2022/10/02 10:23:13;;;;;;;;;;;;;;;18.32;100.00;101583.97;5072479;28;19924;-57
2022/10/02 10:25:55;;;;;;;;;;;;;;;18.30;100.00;101578.78;5072095;28;20347;-56
2022/10/02 10:28:39;;;;;;;;;;;;;;;18.53;100.00;101583.94;5071191;28;19920;-56
2022/10/02 10:31:24;;;;;;;;;;;;;;;18.71;100.00;101576.97;5070726;28;20444;-55
2022/10/02 10:34:10;;;;;;;;;;;;;;;18.81;100.00;101584.16;5073402;28;19928;-56
2022/10/02 10:39:56;;;;;;;;;;;;;;;19.21;100.00;101577.94;5071498;28;19928;-62
2022/10/02 10:42:46;;;;;;;;;;;;;;;19.57;100.00;101576.41;5071503;28;19967;-57
2022/10/02 10:45:40;;;;;;;;;;;;;;;19.68;94.98;101586.09;5062213;28;19920;-63
2022/10/02 10:48:18;;;;;;;;;;;;;;;19.41;92.48;101593.00;5072846;28;20007;-62
2022/10/02 10:50:59;;;;;;;;;;;;;;;19.13;90.68;101592.00;5072587;28;19920;-62
2022/10/02 10:53:45;;;;;;;;;;;;;;;19.13;94.46;101599.13;5071904;28;19927;-56
2022/10/02 10:56:26;;;;;;;;;;;;;;;19.18;92.08;101604.88;5070645;28;20444;-63
2022/10/02 10:59:11;;;;;;;;;;;;;;;19.13;94.41;101615.13;5070942;28;19947;-57
2022/10/02 11:01:46;;;;;;;;;;;;;;;18.99;88.97;101616.34;5069852;28;20382;-56
2022/10/02 11:04:29;;;;;;;;;;;;;;;18.68;87.44;101627.88;5071028;28;19966;-57
2022/10/02 11:07:19;;;;;;;;;;;;;;;18.73;89.40;101623.00;5070936;28;20375;-56
2022/10/02 11:09:57;;;;;;;;;;;;;;;18.67;91.65;101628.84;5071796;28;19974;-57
2022/10/02 11:12:40;;;;;;;;;;;;;;;18.70;89.16;101630.41;5071070;28;20742;-58
2022/10/02 11:15:18;;;;;;;;;;;;;;;18.71;92.13;101634.75;5070690;28;20382;-58
2022/10/02 11:18:02;;;;;;;;;;;;;;;18.75;90.56;101638.84;5067856;28;19921;-57
2022/10/02 11:20:36;;;;;;;;;;;;;;;18.79;88.82;101634.06;5072463;28;19966;-56
2022/10/02 11:23:24;;;;;;;;;;;;;;;18.84;89.25;101643.38;5071397;28;19970;-58
2022/10/02 11:26:09;;;;;;;;;;;;;;;18.72;88.25;101637.28;5067394;28;20613;-56
2022/10/02 11:28:53;;;;;;;;;;;;;;;18.93;90.04;101633.75;5070910;28;20321;-57
2022/10/02 11:31:35;;;;;;;;;;;;;;;19.04;92.10;101636.28;5072223;28;19921;-57
2022/10/02 11:34:25;;;;;;;;;;;;;;;19.18;88.50;101642.22;5073073;28;19920;-58
2022/10/02 11:37:02;;;;;;;;;;;;;;;19.64;89.71;101635.38;5072936;28;20310;-56
2022/10/02 11:39:48;;;;;;;;;;;;;;;19.70;90.07;101648.19;5071497;28;19925;-58
2022/10/02 11:42:30;;;;;;;;;;;;;;;19.79;89.44;101645.66;5070017;28;19970;-57
2022/10/02 11:45:08;;;;;;;;;;;;;;;19.74;86.51;101646.91;5073202;28;20345;-56
2022/10/02 11:47:47;;;;;;;;;;;;;;;19.69;86.87;101641.16;5071182;28;19920;-57
2022/10/02 11:50:28;;;;;;;;;;;;;;;20.13;87.62;101648.72;5069979;28;20391;-58
2022/10/02 11:53:09;;;;;;;;;;;;;;;19.76;83.47;101647.59;5070278;28;19977;-59
2022/10/02 11:55:42;;;;;;;;;;;;;;;19.72;84.82;101656.88;5070688;28;19920;-56
2022/10/02 11:58:15;;;;;;;;;;;;;;;19.61;82.50;101649.00;5070116;28;19963;-57
2022/10/02 12:01:04;;;;;;;;;;;;;;;19.27;77.89;101656.56;5075070;28;19974;-57
2022/10/02 12:03:38;;;;;;;;;;;;;;;19.36;79.29;101651.25;5070760;28;19921;-57
2022/10/02 12:06:12;;;;;;;;;;;;;;;19.54;79.53;101653.22;5075680;28;19946;-58
2022/10/02 12:08:49;;;;;;;;;;;;;;;19.84;80.41;101657.63;5074445;28;19928;-57
2022/10/02 12:11:21;;;;;;;;;;;;;;;19.62;77.12;101660.50;5073429;28;19942;-56
2022/10/02 12:14:06;;;;;;;;;;;;;;;19.48;77.37;101661.78;5073934;28;19920;-57
2022/10/02 12:16:43;;;;;;;;;;;;;;;19.28;79.13;101650.22;5075192;28;20333;-57
2022/10/02 12:19:19;;;;;;;;;;;;;;;19.01;78.19;101652.56;5074639;28;19960;-57
2022/10/02 12:27:36;;;;;;;;;;;;;;;18.69;77.82;101672.19;5076238;28;19950;-57
2022/10/02 12:30:06;;;;;;;;;;;;;;;18.47;76.76;101672.34;5074380;28;20433;-57
2022/10/02 12:32:48;;;;;;;;;;;;;;;19.11;76.95;101665.06;5072449;28;19927;-57
2022/10/02 12:35:22;;;;;;;;;;;;;;;19.86;71.70;101673.47;5073496;28;19920;-57
2022/10/02 12:37:56;;;;;;;;;;;;;;;20.42;71.71;101666.50;5074000;28;19969;-58
2022/10/02 12:40:31;;;;;;;;;;;;;;;20.58;66.50;101669.41;5073415;28;19928;-58
2022/10/02 12:43:32;;;;;;;;;;;;;;;20.69;67.00;101676.44;5073430;28;20358;-58
2022/10/02 12:46:09;;;;;;;;;;;;;;;20.96;62.95;101672.13;5032374;28;19943;-58
2022/10/02 12:48:44;;;;;;;;;;;;;;;21.48;62.31;101670.69;5031735;28;19955;-57
2022/10/02 12:51:33;;;;;;;;;;;;;;;21.60;63.61;101681.03;5054523;28;20003;-58
2022/10/02 12:54:23;;;;;;;;;;;;;;;21.69;60.64;101676.63;5075880;28;20336;-57
2022/10/02 12:57:09;;;;;;;;;;;;;;;21.52;61.23;101680.09;5075523;28;19920;-58
2022/10/02 12:59:45;;;;;;;;;;;;;;;21.60;58.24;101682.88;5075361;28;19970;-58
2022/10/02 13:02:28;;;;;;;;;;;;;;;21.84;56.42;101670.69;5071767;28;19920;-58
2022/10/02 13:05:34;;;;;;;;;;;;;;;22.12;56.81;101680.31;5073255;28;19927;-58
2022/10/02 13:08:09;;;;;;;;;;;;;;;22.26;54.51;101678.91;5075345;28;19924;-64
2022/10/02 13:10:41;;;;;;;;;;;;;;;22.24;55.52;101678.22;5072568;28;19924;-63
2022/10/02 13:13:16;;;;;;;;;;;;;;;22.06;54.84;101674.72;5071844;28;20418;-62
2022/10/02 13:15:53;;;;;;;;;;;;;;;22.17;55.86;101676.31;5073298;28;19928;-58
2022/10/02 13:18:28;;;;;;;;;;;;;;;22.50;55.36;101676.59;5073664;28;19926;-58
2022/10/02 13:21:02;;;;;;;;;;;;;;;22.18;55.28;101681.50;5072678;28;20283;-58
2022/10/02 13:23:35;;;;;;;;;;;;;;;22.33;56.01;101681.78;5072630;28;20367;-57